createdAt,value
2022-10-23T00:19:48.123Z,101228.66
2022-10-23T00:52:22.823Z,101236.97
2022-10-23T01:15:05.350Z,101253.88
2022-10-23T06:28:31.161Z,101132.00
2022-10-23T06:31:20.711Z,101149.84
2022-10-23T06:34:06.480Z,101195.41
2022-10-23T06:36:52.003Z,101174.25
2022-10-23T06:39:57.717Z,101196.03
2022-10-23T06:42:45.160Z,101185.47
2022-10-23T06:45:35.216Z,101244.88
2022-10-23T06:48:37.071Z,101187.06
2022-10-23T06:51:35.236Z,101201.00
2022-10-23T06:54:21.062Z,101186.31
2022-10-23T06:57:34.397Z,101151.44
2022-10-23T07:00:17.984Z,101197.69
2022-10-23T07:03:18.994Z,101136.81
2022-10-23T07:06:15.884Z,101138.69
2022-10-23T07:09:34.634Z,101149.25
2022-10-23T07:12:27.016Z,101188.69
2022-10-23T07:15:18.628Z,101126.44
2022-10-23T07:18:19.509Z,101173.63
2022-10-23T07:21:08.743Z,101148.97
2022-10-23T07:24:05.813Z,101160.47
2022-10-23T07:26:58.179Z,101188.31
2022-10-23T07:29:47.452Z,101166.69
2022-10-23T07:32:40.804Z,101183.56
2022-10-23T07:35:53.787Z,101154.06
2022-10-23T07:38:37.492Z,101168.69
2022-10-23T07:41:22.946Z,101165.09
2022-10-23T07:44:09.667Z,101135.88
2022-10-23T07:46:58.062Z,101152.25
2022-10-23T07:49:52.374Z,101132.63
2022-10-23T07:52:39.103Z,101139.09
2022-10-23T07:55:26.084Z,101210.13
2022-10-23T07:58:15.636Z,101186.88
2022-10-23T08:01:03.395Z,101117.22
2022-10-23T08:44:52.867Z,101137.00
2022-10-23T08:47:55.969Z,101116.69
2022-10-23T08:50:45.741Z,101090.25
2022-10-23T08:53:47.372Z,101113.69
2022-10-23T08:56:37.700Z,101090.00
2022-10-23T08:59:45.928Z,101145.25
2022-10-23T09:02:43.608Z,101119.13
2022-10-23T09:05:34.817Z,101148.22
2022-10-23T09:08:52.162Z,101097.13
2022-10-23T09:11:56.773Z,101078.84
2022-10-23T09:15:23.289Z,101151.00
2022-10-23T09:18:15.173Z,101100.63
2022-10-23T09:21:00.965Z,101113.81
2022-10-23T09:23:46.872Z,101146.00
2022-10-23T09:26:32.298Z,101090.38
2022-10-23T09:29:27.151Z,101073.63
2022-10-23T09:32:12.911Z,101055.38
2022-10-23T09:34:58.952Z,101057.22
2022-10-23T09:37:49.977Z,101069.94
2022-10-23T09:40:45.383Z,101047.78
2022-10-23T09:43:31.063Z,101091.84
2022-10-23T09:46:17.792Z,101069.34
2022-10-23T09:49:05.770Z,101084.00
2022-10-23T09:52:23.729Z,101057.47
2022-10-23T09:55:23.837Z,101049.22
2022-10-23T09:58:36.535Z,101056.53
2022-10-23T10:01:31.104Z,101091.09
2022-10-23T10:04:19.527Z,101026.88
2022-10-23T10:07:20.662Z,101062.75
2022-10-23T10:10:14.743Z,101046.78
2022-10-23T10:13:20.895Z,101062.91
2022-10-23T10:16:23.780Z,101083.56
2022-10-23T10:19:36.692Z,101099.53
2022-10-23T10:22:51.605Z,101102.84
2022-10-23T10:25:58.980Z,101102.09
2022-10-23T10:29:20.673Z,101006.34
2022-10-23T10:32:32.231Z,101086.84
2022-10-23T10:36:02.734Z,101058.19
2022-10-23T10:39:00.251Z,101021.47
2022-10-23T10:42:10.888Z,101069.72
2022-10-23T10:45:16.078Z,101065.19
2022-10-23T10:48:23.056Z,101005.44
2022-10-23T10:51:29.396Z,101011.94
2022-10-23T10:54:40.905Z,101020.69
2022-10-23T10:57:36.899Z,101017.34
2022-10-23T11:00:23.851Z,100991.63
2022-10-23T11:03:39.179Z,101058.91
2022-10-23T11:06:30.093Z,101017.25
2022-10-23T11:09:25.543Z,101014.84
2022-10-23T11:12:20.565Z,101012.41
2022-10-23T11:15:13.870Z,101003.97
2022-10-23T11:18:20.358Z,100958.69
2022-10-23T11:21:21.170Z,101019.81
2022-10-23T11:25:02.866Z,100962.09
2022-10-23T11:28:10.769Z,101007.72
2022-10-23T11:31:16.910Z,100921.31
2022-10-23T11:34:23.297Z,100926.09
2022-10-23T11:37:09.172Z,100965.59
2022-10-23T11:40:06.916Z,100997.88
2022-10-23T11:42:52.550Z,100916.19
2022-10-23T11:45:40.285Z,100973.56
2022-10-23T11:48:45.187Z,100956.88
2022-10-23T11:51:34.426Z,100983.34
2022-10-23T11:54:24.733Z,100947.34
2022-10-23T11:57:15.473Z,100958.03
2022-10-23T12:00:01.350Z,100971.16
2022-10-23T12:02:56.874Z,100923.22
2022-10-23T12:05:45.642Z,100891.72
2022-10-23T12:08:35.116Z,100904.50
2022-10-23T12:11:27.721Z,100882.88
2022-10-23T12:14:46.258Z,100953.88
2022-10-23T12:17:36.774Z,100867.03
2022-10-23T12:20:37.813Z,100858.38
2022-10-23T12:23:44.494Z,100930.16
2022-10-23T12:26:43.659Z,100935.22
2022-10-23T12:29:50.862Z,100938.66
2022-10-23T12:32:59.590Z,100879.59
2022-10-23T12:36:01.464Z,100881.84
2022-10-23T12:38:49.735Z,100884.91
2022-10-23T12:41:38.684Z,100905.94
2022-10-23T12:44:25.821Z,100858.94
2022-10-23T12:47:17.721Z,100844.19
2022-10-23T12:50:03.512Z,100833.63
2022-10-23T12:53:03.366Z,100817.88
2022-10-23T12:58:57.255Z,100846.44
2022-10-23T13:01:43.577Z,100834.63
2022-10-23T13:04:32.240Z,100785.34
2022-10-23T13:07:25.560Z,100806.69
2022-10-23T13:10:15.124Z,100824.22
2022-10-23T13:13:06.134Z,100845.44
2022-10-23T13:15:51.988Z,100815.66
2022-10-23T13:18:44.499Z,100809.59
2022-10-23T13:21:49.211Z,100748.03
2022-10-23T13:24:41.511Z,100745.16
2022-10-23T13:27:55.641Z,100818.94
2022-10-23T13:30:59.880Z,100736.97
2022-10-23T13:34:04.908Z,100730.38
2022-10-23T13:37:25.782Z,100751.53
2022-10-23T13:41:25.683Z,100806.50
2022-10-23T13:44:24.102Z,100722.44
2022-10-23T13:47:16.046Z,100713.88
2022-10-23T13:50:14.532Z,100742.22
2022-10-23T13:53:02.245Z,100711.31
2022-10-23T13:56:18.276Z,100687.31
2022-10-23T13:59:15.416Z,100720.25
2022-10-23T14:02:02.726Z,100721.75
2022-10-23T14:04:53.905Z,100695.78
2022-10-23T14:07:47.473Z,100730.81
2022-10-23T14:10:33.838Z,100718.44
2022-10-23T14:13:30.952Z,100749.31
2022-10-23T14:16:19.664Z,100671.34
2022-10-23T14:19:05.809Z,100765.56
2022-10-23T14:21:51.380Z,100673.19
2022-10-23T14:24:36.782Z,100699.13
2022-10-23T14:27:22.459Z,100712.66
2022-10-23T14:30:11.602Z,100687.94
2022-10-23T14:32:57.374Z,100657.41
2022-10-23T14:35:43.394Z,100665.88
2022-10-23T14:38:31.700Z,100659.47
2022-10-23T14:41:18.450Z,100650.06
2022-10-23T14:44:04.022Z,100703.25
2022-10-23T14:46:50.708Z,100656.50
2022-10-23T14:49:40.224Z,100670.47
2022-10-23T14:52:27.521Z,100659.28
2022-10-23T14:55:13.226Z,100722.41
2022-10-23T14:58:03.497Z,100685.03
2022-10-23T15:01:02.933Z,100645.53
2022-10-23T15:03:54.607Z,100657.84
2022-10-23T15:06:40.099Z,100664.56
2022-10-23T15:09:26.071Z,100660.81
2022-10-23T15:12:11.807Z,100632.84
2022-10-23T15:15:01.555Z,100609.09
2022-10-23T15:17:47.226Z,100660.06
2022-10-23T15:20:32.796Z,100680.69
2022-10-23T15:23:18.224Z,100654.84
2022-10-23T15:26:06.958Z,100632.19
2022-10-23T15:28:58.561Z,100600.97
2022-10-23T15:31:48.971Z,100686.84
2022-10-23T15:34:34.865Z,100630.75
2022-10-23T15:37:23.506Z,100638.66
2022-10-23T15:40:09.355Z,100612.69
2022-10-23T15:42:55.120Z,100615.06
2022-10-23T15:45:41.967Z,100597.31
2022-10-23T15:48:27.328Z,100659.44
2022-10-23T15:51:12.682Z,100588.66
2022-10-23T15:53:59.138Z,100605.13
2022-10-23T15:56:50.931Z,100579.25
2022-10-23T15:59:38.991Z,100624.28
2022-10-23T16:02:24.418Z,100617.13
2022-10-23T16:05:10.406Z,100610.00
2022-10-23T16:07:55.982Z,100546.69
2022-10-23T16:10:43.056Z,100603.34
2022-10-23T16:13:29.215Z,100559.94
2022-10-23T16:16:18.015Z,100583.16
2022-10-23T16:19:04.682Z,100575.97
2022-10-23T16:21:50.153Z,100515.09
2022-10-23T16:24:36.027Z,100503.50
2022-10-23T16:27:21.571Z,100570.03
2022-10-23T16:30:09.344Z,100532.44
2022-10-23T16:32:55.192Z,100543.19
2022-10-23T16:35:41.062Z,100541.84
2022-10-23T16:38:26.687Z,100601.47
2022-10-23T16:41:12.400Z,100530.31
2022-10-23T16:44:00.382Z,100504.84
2022-10-23T16:46:45.689Z,100521.88
2022-10-23T16:49:32.216Z,100482.81
2022-10-23T16:52:17.978Z,100491.63
2022-10-23T16:55:03.895Z,100501.47
2022-10-23T16:57:49.368Z,100490.13
2022-10-23T17:00:35.437Z,100491.75
2022-10-23T17:03:21.023Z,100519.00
2022-10-23T17:06:11.244Z,100526.13
2022-10-23T17:08:58.227Z,100491.31
2022-10-23T17:11:44.974Z,100491.91
2022-10-23T17:14:30.609Z,100485.72
2022-10-23T17:17:16.151Z,100490.53
2022-10-23T17:20:01.704Z,100496.41
2022-10-23T17:22:47.497Z,100499.28
2022-10-23T17:25:32.960Z,100515.34
2022-10-23T17:28:18.420Z,100481.50
2022-10-23T17:31:04.068Z,100454.81
2022-10-23T17:33:52.379Z,100466.13
2022-10-23T17:36:42.635Z,100493.97
2022-10-23T17:39:32.182Z,100441.53
2022-10-23T17:42:17.595Z,100458.69
2022-10-23T17:45:03.054Z,100432.94
2022-10-23T17:47:48.903Z,100481.59
2022-10-23T17:50:36.765Z,100440.94
2022-10-23T17:53:28.146Z,100512.00
2022-10-23T17:56:19.086Z,100396.56
2022-10-23T17:59:08.166Z,100435.88
2022-10-23T18:01:53.735Z,100439.09
2022-10-23T18:04:42.322Z,100442.22
2022-10-23T18:07:30.661Z,100462.81
2022-10-23T18:10:19.101Z,100449.31
2022-10-23T18:13:04.631Z,100466.13
2022-10-23T18:15:51.583Z,100424.63
2022-10-23T18:18:37.963Z,100424.94
2022-10-23T18:21:30.045Z,100453.97
2022-10-23T18:24:18.100Z,100459.38
2022-10-23T18:27:05.881Z,100454.00
2022-10-23T18:29:51.519Z,100441.44
2022-10-23T18:32:38.388Z,100467.19
2022-10-23T18:35:26.930Z,100445.19
2022-10-23T18:38:13.662Z,100454.38
2022-10-23T18:40:59.291Z,100467.59
2022-10-23T18:43:46.079Z,100432.69
2022-10-23T18:46:34.791Z,100447.78
2022-10-23T18:49:20.419Z,100471.63
2022-10-23T18:52:06.092Z,100523.50
2022-10-23T18:54:51.762Z,100494.00
2022-10-23T18:57:38.117Z,100509.69
2022-10-23T19:00:23.992Z,100445.53
2022-10-23T19:03:13.282Z,100498.97
2022-10-23T19:06:01.963Z,100509.63
2022-10-23T19:08:48.274Z,100460.22
2022-10-23T19:11:35.388Z,100542.38
2022-10-23T19:14:21.038Z,100427.81
2022-10-23T19:17:11.386Z,100505.22
2022-10-23T19:20:07.560Z,100464.22
2022-10-23T19:22:59.630Z,100490.75
2022-10-23T19:25:45.536Z,100538.91
2022-10-23T19:28:37.538Z,100480.22
2022-10-23T19:31:27.278Z,100455.81
2022-10-23T19:34:13.164Z,100464.41
2022-10-23T19:36:58.675Z,100424.63
2022-10-23T19:39:47.968Z,100424.50
2022-10-23T19:42:39.053Z,100422.06
2022-10-23T19:45:29.099Z,100442.31
2022-10-23T19:48:17.070Z,100462.25
2022-10-23T19:51:03.006Z,100488.94
2022-10-23T19:56:43.917Z,100484.94
2022-10-23T19:59:29.674Z,100445.50
2022-10-23T20:02:17.902Z,100529.19
2022-10-23T20:05:09.358Z,100458.75
2022-10-23T20:07:56.776Z,100473.72
2022-10-23T20:10:45.381Z,100550.84
2022-10-23T20:13:31.400Z,100491.44
2022-10-23T20:16:24.763Z,100475.63
2022-10-23T20:19:13.921Z,100494.41
2022-10-23T20:22:04.838Z,100522.72
2022-10-23T20:24:55.016Z,100560.25
2022-10-23T20:27:40.833Z,100432.41
2022-10-23T20:30:26.325Z,100463.69
2022-10-23T20:33:18.063Z,100457.78
2022-10-23T20:36:08.346Z,100491.19
2022-10-23T20:38:58.176Z,100474.22
2022-10-23T20:41:45.119Z,100535.19
2022-10-23T20:44:32.460Z,100431.38
2022-10-23T20:47:18.126Z,100460.50
2022-10-23T20:50:03.861Z,100442.47
2022-10-23T20:52:56.271Z,100420.91
2022-10-23T20:55:45.128Z,100476.47
2022-10-23T20:58:33.197Z,100466.94
2022-10-23T21:01:18.903Z,100508.31
2022-10-23T21:04:09.793Z,100490.53
2022-10-23T21:07:09.837Z,100417.88
2022-10-23T21:09:57.045Z,100472.03
2022-10-23T21:12:43.158Z,100441.94
2022-10-23T21:15:29.167Z,100452.63
2022-10-23T21:18:27.533Z,100420.19
2022-10-23T21:21:36.562Z,100450.72
2022-10-23T21:24:25.907Z,100481.53
2022-10-23T21:27:13.240Z,100530.69
2022-10-23T21:30:11.918Z,100486.66
2022-10-23T21:32:58.699Z,100464.69
2022-10-23T21:36:04.637Z,100441.06
2022-10-23T21:38:58.930Z,100410.88
2022-10-23T21:41:49.357Z,100379.31
2022-10-23T21:44:34.741Z,100374.47
2022-10-23T21:47:23.071Z,100411.59
2022-10-23T21:50:11.535Z,100317.88
2022-10-23T21:53:02.261Z,100331.28
2022-10-23T21:55:56.853Z,100361.59
2022-10-23T21:58:43.571Z,100345.69
2022-10-23T22:01:32.839Z,100413.88
2022-10-23T22:04:22.401Z,100348.22
2022-10-23T22:07:18.863Z,100379.75
2022-10-23T22:10:05.134Z,100356.63
2022-10-23T22:12:52.600Z,100355.81
2022-10-23T22:18:32.183Z,100394.84
2022-10-23T22:21:34.062Z,100438.47
2022-10-23T22:24:22.119Z,100395.06
2022-10-23T22:27:16.687Z,100379.03
2022-10-23T22:30:03.795Z,100436.22
2022-10-23T22:32:51.995Z,100419.97
2022-10-23T22:35:41.124Z,100390.41
2022-10-23T22:38:34.492Z,100397.34
2022-10-23T22:41:20.471Z,100411.22
2022-10-23T22:44:09.972Z,100415.84
2022-10-23T22:46:57.977Z,100414.81
2022-10-23T22:49:45.089Z,100405.00
2022-10-23T22:52:30.810Z,100461.69
2022-10-23T22:55:16.454Z,100420.84
2022-10-23T22:58:04.399Z,100404.78
2022-10-23T23:00:55.995Z,100396.09
2022-10-23T23:03:42.124Z,100431.16
2022-10-23T23:06:28.499Z,100434.94
2022-10-23T23:09:17.952Z,100391.97
2022-10-23T23:12:05.840Z,100449.59
2022-10-23T23:14:54.053Z,100400.16
2022-10-23T23:17:44.077Z,100400.00
2022-10-23T23:20:31.333Z,100405.66
2022-10-23T23:23:21.140Z,100451.91
2022-10-23T23:26:19.104Z,100415.41
2022-10-23T23:29:04.823Z,100457.97
2022-10-23T23:31:56.195Z,100433.25
2022-10-23T23:34:41.922Z,100432.19
2022-10-23T23:37:29.502Z,100494.00
2022-10-23T23:40:18.715Z,100434.34
2022-10-23T23:43:09.572Z,100484.00
2022-10-23T23:45:57.367Z,100459.97
2022-10-23T23:48:48.608Z,100491.25
2022-10-23T23:51:43.084Z,100450.50
2022-10-23T23:54:31.784Z,100489.25
2022-10-23T23:57:43.534Z,100488.91
